Sarah D — WDI9093 — position and weather

sailwx.info

Track history (hours):
 
Tides and Currents Weather Stations Pressure Air Temp Water Temp Dewpoint Dewpoint Depression Visibility Wind Speed Wind Dir Waves Ship Positions

Sarah D

Owner: New York State Marine Highway Transportation LLC, Troy, NY. More information available from US FCC via Universal Licensing System and Coast Guard Vessel Documentation Center.

Last reported at 2018-Jul-21 16:02 UTC. Time now 2018-Jul-23 04:16 UTC.
Position N 40°48' W 073°59'.

Length 29 m; draft 4 m.

Type: Towing. MMSI: 367177370.

Date/timePositionNaut miles runAvg speedWind from/ knotsBaromVisibWave heightAir tempDewpointWater temp
2018-Jul-21 16:02N 40°48' W 073°59'0 4.1
2018-Jul-21 15:57N 40°47' W 073°59'2 4.1
2018-Jul-21 15:30N 40°46' W 074°01'2 4.2
2018-Jul-21 15:00N 40°44' W 074°01'2 4.0
2018-Jul-21 14:30N 40°42' W 074°02'2 2.3
2018-Jul-21 13:30N 40°39' W 074°02'0 0.3
2018-Jul-21 13:00N 40°39' W 074°02'0 0.2
2018-Jul-21 12:30N 40°39' W 074°02'5 0.6
2018-Jul-21 04:14N 40°34' W 074°01'1 2.8
2018-Jul-21 04:00N 40°35' W 074°02'3 5.6
2018-Jul-21 03:29N 40°38' W 074°03'2 3.6
2018-Jul-21 02:59N 40°39' W 074°02'0 0.5
2018-Jul-21 02:30N 40°40' W 074°02'3 5.9
2018-Jul-21 02:00N 40°43' W 074°02'4 7.0
2018-Jul-21 01:30N 40°46' W 074°01'  
2018-Jul-18 20:09N 40°46' W 073°60'1 8.0
2018-Jul-18 20:00N 40°45' W 074°01'4 8.6
2018-Jul-18 19:30N 40°41' W 074°02'2 3.4
2018-Jul-18 19:00N 40°39' W 074°02'1 2.2
2018-Jul-18 18:30N 40°38' W 074°02'3 0.4
2018-Jul-18 11:13N 40°36' W 074°02'4 5.1
2018-Jul-18 10:30N 40°39' W 074°02'0 0.0
2018-Jul-18 10:00N 40°39' W 074°02'2 4.4
2018-Jul-18 09:30N 40°42' W 074°02'4 7.1
2018-Jul-18 09:00N 40°45' W 074°01'  
2018-Jul-15 11:45N 40°48' W 073°59'1 4.9
2018-Jul-15 11:30N 40°47' W 074°00'2 4.1
2018-Jul-15 10:58N 40°44' W 074°01'2 4.1
2018-Jul-15 10:30N 40°43' W 074°01'2 4.1
2018-Jul-15 10:00N 40°41' W 074°02'1 2.5
2018-Jul-15 09:29N 40°39' W 074°02'0 0.1
2018-Jul-15 09:00N 40°39' W 074°02'0 0.0
2018-Jul-15 08:30N 40°39' W 074°02'1 2.9
2018-Jul-15 08:00N 40°40' W 074°04'0 0.3
2018-Jul-15 07:30N 40°40' W 074°04'1 2.7
2018-Jul-15 07:01N 40°39' W 074°02'0 0.6
2018-Jul-15 06:30N 40°39' W 074°02'0 0.5
2018-Jul-15 06:01N 40°39' W 074°02'0 0.6
2018-Jul-15 05:30N 40°39' W 074°02'2 4.7
2018-Jul-15 05:00N 40°36' W 074°02'7 1.4
2018-Jul-15 00:22N 40°34' W 073°54'2 5.1
2018-Jul-14 23:56N 40°34' W 073°57'2 3.7
2018-Jul-14 23:30N 40°34' W 073°59'2 3.2
2018-Jul-14 23:00N 40°34' W 074°01'2 4.7
2018-Jul-14 22:30N 40°36' W 074°02'2 4.3
2018-Jul-14 22:00N 40°39' W 074°02'1 1.7
2018-Jul-14 21:30N 40°39' W 074°02'0 0.2
2018-Jul-14 21:00N 40°39' W 074°02'0 0.0
2018-Jul-14 20:31N 40°39' W 074°02'0 0.1
2018-Jul-14 20:00N 40°39' W 074°02'1 1.4
2018-Jul-14 19:30N 40°40' W 074°02'4 7.7
2018-Jul-14 18:59N 40°44' W 074°01'3 0.1
2018-Jul-12 23:39N 40°47' W 073°60'1 9.7
2018-Jul-12 23:30N 40°46' W 074°00'5 9.1
2018-Jul-12 23:00N 40°42' W 074°02'2 3.9
2018-Jul-12 22:30N 40°40' W 074°02'0 0.0
2018-Jul-12 22:00N 40°40' W 074°02'0 0.3
2018-Jul-12 21:30N 40°39' W 074°02'0 0.1
2018-Jul-12 21:00N 40°39' W 074°02'1 2.7
2018-Jul-12 20:30N 40°41' W 074°02'2 4.8
2018-Jul-12 20:00N 40°43' W 074°02'  
Track history (hours):
 
Tides and Currents Weather Stations Pressure Air Temp Water Temp Dewpoint Dewpoint Depression Visibility Wind Speed Wind Dir Waves Ship Positions

Sarah D

Owner: New York State Marine Highway Transportation LLC, Troy, NY. More information available from US FCC via Universal Licensing System and Coast Guard Vessel Documentation Center.

Last reported at 2018-Jul-21 16:02 UTC. Time now 2018-Jul-23 04:16 UTC.
Position N 40°48' W 073°59'.

Length 29 m; draft 4 m.

Type: Towing. MMSI: 367177370.

Date/timePositionNaut miles runAvg speedWind from/ knotsBaromVisibWave heightAir tempDewpointWater temp
2018-Jul-21 16:02N 40°48' W 073°59'0 4.1
2018-Jul-21 15:57N 40°47' W 073°59'2 4.1
2018-Jul-21 15:30N 40°46' W 074°01'2 4.2
2018-Jul-21 15:00N 40°44' W 074°01'2 4.0
2018-Jul-21 14:30N 40°42' W 074°02'2 2.3
2018-Jul-21 13:30N 40°39' W 074°02'0 0.3
2018-Jul-21 13:00N 40°39' W 074°02'0 0.2
2018-Jul-21 12:30N 40°39' W 074°02'5 0.6
2018-Jul-21 04:14N 40°34' W 074°01'1 2.8
2018-Jul-21 04:00N 40°35' W 074°02'3 5.6
2018-Jul-21 03:29N 40°38' W 074°03'2 3.6
2018-Jul-21 02:59N 40°39' W 074°02'0 0.5
2018-Jul-21 02:30N 40°40' W 074°02'3 5.9
2018-Jul-21 02:00N 40°43' W 074°02'4 7.0
2018-Jul-21 01:30N 40°46' W 074°01'  
2018-Jul-18 20:09N 40°46' W 073°60'1 8.0
2018-Jul-18 20:00N 40°45' W 074°01'4 8.6
2018-Jul-18 19:30N 40°41' W 074°02'2 3.4
2018-Jul-18 19:00N 40°39' W 074°02'1 2.2
2018-Jul-18 18:30N 40°38' W 074°02'3 0.4
2018-Jul-18 11:13N 40°36' W 074°02'4 5.1
2018-Jul-18 10:30N 40°39' W 074°02'0 0.0
2018-Jul-18 10:00N 40°39' W 074°02'2 4.4
2018-Jul-18 09:30N 40°42' W 074°02'4 7.1
2018-Jul-18 09:00N 40°45' W 074°01'  
2018-Jul-15 11:45N 40°48' W 073°59'1 4.9
2018-Jul-15 11:30N 40°47' W 074°00'2 4.1
2018-Jul-15 10:58N 40°44' W 074°01'2 4.1
2018-Jul-15 10:30N 40°43' W 074°01'2 4.1
2018-Jul-15 10:00N 40°41' W 074°02'1 2.5
2018-Jul-15 09:29N 40°39' W 074°02'0 0.1
2018-Jul-15 09:00N 40°39' W 074°02'0 0.0
2018-Jul-15 08:30N 40°39' W 074°02'1 2.9
2018-Jul-15 08:00N 40°40' W 074°04'0 0.3
2018-Jul-15 07:30N 40°40' W 074°04'1 2.7
2018-Jul-15 07:01N 40°39' W 074°02'0 0.6
2018-Jul-15 06:30N 40°39' W 074°02'0 0.5
2018-Jul-15 06:01N 40°39' W 074°02'0 0.6
2018-Jul-15 05:30N 40°39' W 074°02'2 4.7
2018-Jul-15 05:00N 40°36' W 074°02'7 1.4
2018-Jul-15 00:22N 40°34' W 073°54'2 5.1
2018-Jul-14 23:56N 40°34' W 073°57'2 3.7
2018-Jul-14 23:30N 40°34' W 073°59'2 3.2
2018-Jul-14 23:00N 40°34' W 074°01'2 4.7
2018-Jul-14 22:30N 40°36' W 074°02'2 4.3
2018-Jul-14 22:00N 40°39' W 074°02'1 1.7
2018-Jul-14 21:30N 40°39' W 074°02'0 0.2
2018-Jul-14 21:00N 40°39' W 074°02'0 0.0
2018-Jul-14 20:31N 40°39' W 074°02'0 0.1
2018-Jul-14 20:00N 40°39' W 074°02'1 1.4
2018-Jul-14 19:30N 40°40' W 074°02'4 7.7
2018-Jul-14 18:59N 40°44' W 074°01'3 0.1
2018-Jul-12 23:39N 40°47' W 073°60'1 9.7
2018-Jul-12 23:30N 40°46' W 074°00'5 9.1
2018-Jul-12 23:00N 40°42' W 074°02'2 3.9
2018-Jul-12 22:30N 40°40' W 074°02'0 0.0
2018-Jul-12 22:00N 40°40' W 074°02'0 0.3
2018-Jul-12 21:30N 40°39' W 074°02'0 0.1
2018-Jul-12 21:00N 40°39' W 074°02'1 2.7
2018-Jul-12 20:30N 40°41' W 074°02'2 4.8
2018-Jul-12 20:00N 40°43' W 074°02'  

Dump ship's entire track history